Time;durP1;ratioP1;P1;durP2;ratioP2;P2;SDS_P1;SDS_P2;PMS_P1;PMS_P2;Temp;Humidity;BMP_temperature;BMP_pressure;BME280_temperature;BME280_humidity;BME280_pressure;Samples;Min_cycle;Max_cycle;Signal;HPM_P1;HPM_P2
2021/11/10 00:02:09;;;;;;;;;;;;;;;;;;5078124;28;1338;-50
2021/11/10 00:04:34;;;;;;;;;;;;;;;;;;5076894;28;1521;-46
2021/11/10 00:07:00;;;;;;;;;;;;;;;;;;5078952;28;1306;-47
2021/11/10 00:09:25;;;;;;;;;;;;;;;;;;5079706;28;1418;-46
2021/11/10 00:11:51;;;;;;;;;;;;;;;;;;5076039;28;1505;-47
2021/11/10 00:14:16;;;;;;;;;;;;;;;;;;5078422;28;1909;-47
2021/11/10 00:16:42;;;;;;;;;;;;;;;;;;5078552;28;1296;-47
2021/11/10 00:19:07;;;;;;;;;;;;;;;;;;5077778;28;1379;-47
2021/11/10 00:21:32;;;;;;;;;;;;;;;;;;5079178;28;1174;-46
2021/11/10 00:23:57;;;;;;;;;;;;;;;;;;5078969;28;1187;-48
2021/11/10 00:26:22;;;;;;;;;;;;;;;;;;5078612;28;1294;-46
2021/11/10 00:28:48;;;;;;;;;;;;;;;;;;5076949;28;1458;-46
2021/11/10 00:31:13;;;;;;;;;;;;;;;;;;5073806;28;1527;-48
2021/11/10 00:33:38;;;;;;;;;;;;;;;;;;5076031;28;1906;-46
2021/11/10 00:36:04;;;;;;;;;;;;;;;;;;5075236;28;1475;-48
2021/11/10 00:38:29;;;;;;;;;;;;;;;;;;5075486;28;1447;-47
2021/11/10 00:40:55;;;;;;;;;;;;;;;;;;5073173;28;1448;-47
2021/11/10 00:43:20;;;;;;;;;;;;;;;;;;5076378;28;1457;-50
2021/11/10 00:45:45;;;;;;;;;;;;;;;;;;5079350;28;1295;-48
2021/11/10 00:48:10;;;;;;;;;;;;;;;;;;5076174;28;1412;-49
2021/11/10 00:50:36;;;;;;;;;;;;;;;;;;5076597;28;1482;-47
2021/11/10 00:53:03;;;;;;;;;;;;;;;;;;5076542;28;1968;-48
2021/11/10 00:55:29;;;;;;;;;;;;;;;;;;5077942;28;1247;-46
2021/11/10 00:57:54;;;;;;;;;;;;;;;;;;5077137;28;1656;-47
2021/11/10 01:00:19;;;;;;;;;;;;;;;;;;5076010;28;1060;-47
2021/11/10 01:02:45;;;;;;;;;;;;;;;;;;5071547;28;1888;-47
2021/11/10 01:05:10;;;;;;;;;;;;;;;;;;5076262;28;1443;-47
2021/11/10 01:07:36;;;;;;;;;;;;;;;;;;5116902;22;2387;-54
2021/11/10 01:10:03;;;;;;;;;;;;;;;;;;5098681;28;1155;-51
2021/11/10 01:12:28;;;;;;;;;;;;;;;;;;5097695;28;1988;-51
2021/11/10 01:14:54;;;;;;;;;;;;;;;;;;5096802;28;1458;-51
2021/11/10 01:17:19;;;;;;;;;;;;;;;;;;5097780;28;1461;-50
2021/11/10 01:19:44;;;;;;;;;;;;;;;;;;5093681;28;1464;-49
2021/11/10 01:22:09;;;;;;;;;;;;;;;;;;5095890;28;1440;-51
2021/11/10 01:24:34;;;;;;;;;;;;;;;;;;5094988;28;1107;-51
2021/11/10 01:26:59;;;;;;;;;;;;;;;;;;5097197;28;1362;-50
2021/11/10 01:29:25;;;;;;;;;;;;;;;;;;5095828;28;1515;-52
2021/11/10 01:31:50;;;;;;;;;;;;;;;;;;5095848;28;1292;-49
2021/11/10 01:34:15;;;;;;;;;;;;;;;;;;5096862;28;1969;-51
2021/11/10 01:36:40;;;;;;;;;;;;;;;;;;5097202;28;1262;-51
2021/11/10 01:39:06;;;;;;;;;;;;;;;;;;5093430;28;1643;-50
2021/11/10 01:41:33;;;;;;;;;;;;;;;;;;5098025;28;1233;-51
2021/11/10 01:43:58;;;;;;;;;;;;;;;;;;5094125;28;1643;-50
2021/11/10 01:46:23;;;;;;;;;;;;;;;;;;5096271;28;1304;-50
2021/11/10 01:48:48;;;;;;;;;;;;;;;;;;5092306;28;1390;-52
2021/11/10 01:51:13;;;;;;;;;;;;;;;;;;5098341;28;1142;-51
2021/11/10 01:53:39;;;;;;;;;;;;;;;;;;5091331;28;1894;-52
2021/11/10 01:56:04;;;;;;;;;;;;;;;;;;5093316;28;1361;-49
2021/11/10 01:58:29;;;;;;;;;;;;;;;;;;5091613;28;1662;-50
2021/11/10 02:00:54;;;;;;;;;;;;;;;;;;5093786;28;1720;-51
2021/11/10 02:03:20;;;;;;;;;;;;;;;;;;5092156;28;979;-51
2021/11/10 02:05:45;;;;;;;;;;;;;;;;;;5093831;28;1434;-52
2021/11/10 02:08:10;;;;;;;;;;;;;;;;;;5092348;28;1543;-52
2021/11/10 02:10:35;;;;;;;;;;;;;;;;;;5095990;28;1111;-50
2021/11/10 02:13:00;;;;;;;;;;;;;;;;;;5089603;28;1910;-52
2021/11/10 02:15:26;;;;;;;;;;;;;;;;;;5094798;28;1000;-54
2021/11/10 02:17:52;;;;;;;;;;;;;;;;;;5092741;28;1659;-53
2021/11/10 02:20:17;;;;;;;;;;;;;;;;;;5095941;28;1336;-53
2021/11/10 02:22:43;;;;;;;;;;;;;;;;;;5096597;28;1087;-53
2021/11/10 02:25:08;;;;;;;;;;;;;;;;;;5095970;28;1067;-55
2021/11/10 02:27:35;;;;;;;;;;;;;;;;;;5094520;28;1469;-54
2021/11/10 02:30:00;;;;;;;;;;;;;;;;;;5095557;28;1143;-55
2021/11/10 02:32:25;;;;;;;;;;;;;;;;;;5096506;28;1901;-56
2021/11/10 02:34:50;;;;;;;;;;;;;;;;;;5092849;28;1547;-53
2021/11/10 02:37:19;;;;;;;;;;;;;;;;;;5097603;28;1374;-55
2021/11/10 02:39:44;;;;;;;;;;;;;;;;;;5097418;28;1527;-53
2021/11/10 02:42:09;;;;;;;;;;;;;;;;;;5100701;28;1347;-53
2021/11/10 02:44:34;;;;;;;;;;;;;;;;;;5097964;28;1361;-53
2021/11/10 02:47:00;;;;;;;;;;;;;;;;;;5096450;28;1670;-54
2021/11/10 02:49:25;;;;;;;;;;;;;;;;;;5097296;28;1403;-54
2021/11/10 02:51:56;;;;;;;;;;;;;;;;;;5100669;28;1186;-53
2021/11/10 02:54:21;;;;;;;;;;;;;;;;;;5098544;28;1933;-53
2021/11/10 02:56:46;;;;;;;;;;;;;;;;;;5100492;28;1387;-52
2021/11/10 02:59:12;;;;;;;;;;;;;;;;;;5098575;28;1555;-53
2021/11/10 03:01:37;;;;;;;;;;;;;;;;;;5097574;28;1167;-53
2021/11/10 03:04:02;;;;;;;;;;;;;;;;;;5096147;28;1430;-53
2021/11/10 03:06:27;;;;;;;;;;;;;;;;;;5100181;28;1368;-52
2021/11/10 03:08:52;;;;;;;;;;;;;;;;;;5094914;28;1663;-53
2021/11/10 03:11:18;;;;;;;;;;;;;;;;;;5099312;28;1134;-53
2021/11/10 03:13:43;;;;;;;;;;;;;;;;;;5097533;28;1972;-53
2021/11/10 03:16:08;;;;;;;;;;;;;;;;;;5099485;28;1555;-54
2021/11/10 03:18:33;;;;;;;;;;;;;;;;;;5100784;28;1408;-55
2021/11/10 03:20:59;;;;;;;;;;;;;;;;;;5093969;28;1464;-52
2021/11/10 03:23:24;;;;;;;;;;;;;;;;;;5097724;28;1154;-53
2021/11/10 03:25:49;;;;;;;;;;;;;;;;;;5095493;28;1556;-54
2021/11/10 03:28:14;;;;;;;;;;;;;;;;;;5099022;28;1443;-53
2021/11/10 03:30:39;;;;;;;;;;;;;;;;;;5096907;28;1603;-53
2021/11/10 03:33:05;;;;;;;;;;;;;;;;;;5096526;28;1902;-52
2021/11/10 03:35:30;;;;;;;;;;;;;;;;;;5097210;28;1399;-54
2021/11/10 03:37:55;;;;;;;;;;;;;;;;;;5099912;28;1229;-53
2021/11/10 03:40:20;;;;;;;;;;;;;;;;;;5095076;28;1582;-53
2021/11/10 03:42:45;;;;;;;;;;;;;;;;;;5094679;28;1099;-54
2021/11/10 03:45:11;;;;;;;;;;;;;;;;;;5099386;28;1154;-54
2021/11/10 03:47:36;;;;;;;;;;;;;;;;;;5095598;28;1464;-54
2021/11/10 03:50:01;;;;;;;;;;;;;;;;;;5096725;28;1456;-54
2021/11/10 03:52:27;;;;;;;;;;;;;;;;;;5098695;28;1914;-54
2021/11/10 03:54:52;;;;;;;;;;;;;;;;;;5093862;28;1484;-52
2021/11/10 03:57:17;;;;;;;;;;;;;;;;;;5097249;28;1454;-53
2021/11/10 03:59:42;;;;;;;;;;;;;;;;;;5094867;28;1555;-53
2021/11/10 04:02:08;;;;;;;;;;;;;;;;;;5094535;28;1611;-53
2021/11/10 04:04:33;;;;;;;;;;;;;;;;;;5096252;28;1478;-54
2021/11/10 04:06:58;;;;;;;;;;;;;;;;;;5094813;28;1827;-53
2021/11/10 04:09:24;;;;;;;;;;;;;;;;;;5098397;28;1221;-53
2021/11/10 04:11:49;;;;;;;;;;;;;;;;;;5094775;28;1396;-54
2021/11/10 04:14:14;;;;;;;;;;;;;;;;;;5099045;28;1972;-54
2021/11/10 04:16:39;;;;;;;;;;;;;;;;;;5096773;28;1369;-53
2021/11/10 04:19:05;;;;;;;;;;;;;;;;;;5095438;28;1396;-54
2021/11/10 04:21:31;;;;;;;;;;;;;;;;;;5093334;28;1664;-53
2021/11/10 04:23:56;;;;;;;;;;;;;;;;;;5100497;28;1277;-55
2021/11/10 04:26:22;;;;;;;;;;;;;;;;;;5096038;28;1456;-53
2021/11/10 04:28:47;;;;;;;;;;;;;;;;;;5095932;28;1368;-55
2021/11/10 04:31:12;;;;;;;;;;;;;;;;;;5098038;28;1266;-54
2021/11/10 04:33:38;;;;;;;;;;;;;;;;;;5095946;28;1973;-53
2021/11/10 04:36:03;;;;;;;;;;;;;;;;;;5096022;28;1286;-54
2021/11/10 04:38:28;;;;;;;;;;;;;;;;;;5098162;28;1166;-49
2021/11/10 04:40:53;;;;;;;;;;;;;;;;;;5096835;28;1484;-54
2021/11/10 04:43:18;;;;;;;;;;;;;;;;;;5093412;28;1663;-51
2021/11/10 04:45:46;;;;;;;;;;;;;;;;;;5098196;28;1254;-52
2021/11/10 04:48:11;;;;;;;;;;;;;;;;;;5097638;28;1099;-49
2021/11/10 04:50:38;;;;;;;;;;;;;;;;;;5094705;28;1491;-51
2021/11/10 04:53:03;;;;;;;;;;;;;;;;;;5097741;28;1930;-51
2021/11/10 04:55:28;;;;;;;;;;;;;;;;;;5096780;28;1674;-52
2021/11/10 04:57:53;;;;;;;;;;;;;;;;;;5098023;28;1302;-51
2021/11/10 05:00:18;;;;;;;;;;;;;;;;;;5093854;28;1508;-51
2021/11/10 05:02:44;;;;;;;;;;;;;;;;;;5091793;28;1809;-50
2021/11/10 05:05:09;;;;;;;;;;;;;;;;;;5094917;28;1396;-51
2021/11/10 05:07:34;;;;;;;;;;;;;;;;;;5097836;28;1250;-51
2021/11/10 05:10:00;;;;;;;;;;;;;;;;;;5095089;28;1554;-51
2021/11/10 05:12:25;;;;;;;;;;;;;;;;;;5094627;28;1953;-51
2021/11/10 05:14:52;;;;;;;;;;;;;;;;;;5097588;28;1556;-52
2021/11/10 05:17:18;;;;;;;;;;;;;;;;;;5099309;28;1278;-50
2021/11/10 05:19:44;;;;;;;;;;;;;;;;;;5093146;28;1701;-51
2021/11/10 05:22:09;;;;;;;;;;;;;;;;;;5091985;28;1410;-50
2021/11/10 05:24:34;;;;;;;;;;;;;;;;;;5097323;28;1167;-50
2021/11/10 05:26:59;;;;;;;;;;;;;;;;;;5096212;28;1248;-51
2021/11/10 05:29:24;;;;;;;;;;;;;;;;;;5095531;28;1535;-51
2021/11/10 05:31:50;;;;;;;;;;;;;;;;;;5094930;28;1467;-50
2021/11/10 05:34:15;;;;;;;;;;;;;;;;;;5094572;28;1906;-51
2021/11/10 05:36:41;;;;;;;;;;;;;;;;;;5095755;28;1277;-52
2021/11/10 05:39:07;;;;;;;;;;;;;;;;;;5095418;28;1325;-51
2021/11/10 05:41:32;;;;;;;;;;;;;;;;;;5095721;28;1103;-51
2021/11/10 05:43:57;;;;;;;;;;;;;;;;;;5094108;28;1556;-51
2021/11/10 05:46:23;;;;;;;;;;;;;;;;;;5097348;28;1540;-51
2021/11/10 05:48:48;;;;;;;;;;;;;;;;;;5093275;28;1760;-51
2021/11/10 05:51:13;;;;;;;;;;;;;;;;;;5096915;28;1250;-51
2021/11/10 05:53:43;;;;;;;;;;;;;;;;;;5094403;28;1922;-52
2021/11/10 05:56:16;;;;;;;;;;;;;;;;;;5095499;28;1247;-51
2021/11/10 05:58:41;;;;;;;;;;;;;;;;;;5094230;28;1514;-51
2021/11/10 06:01:06;;;;;;;;;;;;;;;;;;5096735;28;1607;-51
2021/11/10 06:03:32;;;;;;;;;;;;;;;;;;5094421;28;1438;-50
2021/11/10 06:05:57;;;;;;;;;;;;;;;;;;5094776;28;1623;-52
2021/11/10 06:08:22;;;;;;;;;;;;;;;;;;5095113;28;1183;-52
2021/11/10 06:10:47;;;;;;;;;;;;;;;;;;5095430;28;1506;-53
2021/11/10 06:13:13;;;;;;;;;;;;;;;;;;5091797;28;1914;-50
2021/11/10 06:15:38;;;;;;;;;;;;;;;;;;5097064;28;1298;-52
2021/11/10 06:18:03;;;;;;;;;;;;;;;;;;5099239;28;1662;-51
2021/11/10 06:20:28;;;;;;;;;;;;;;;;;;5099342;28;1494;-51
2021/11/10 06:22:53;;;;;;;;;;;;;;;;;;5095108;28;1610;-51
2021/11/10 06:25:19;;;;;;;;;;;;;;;;;;5097405;28;1011;-51
2021/11/10 06:27:44;;;;;;;;;;;;;;;;;;5097520;28;1570;-50
2021/11/10 06:30:09;;;;;;;;;;;;;;;;;;5100130;28;1035;-51
2021/11/10 06:32:35;;;;;;;;;;;;;;;;;;5097888;28;1964;-51
2021/11/10 06:35:00;;;;;;;;;;;;;;;;;;5098942;28;1396;-47
2021/11/10 06:37:25;;;;;;;;;;;;;;;;;;5101028;28;1280;-52
2021/11/10 06:39:50;;;;;;;;;;;;;;;;;;5097171;28;1633;-51
2021/11/10 06:42:16;;;;;;;;;;;;;;;;;;5099420;28;1240;-51
2021/11/10 06:44:41;;;;;;;;;;;;;;;;;;5099751;28;1090;-51
2021/11/10 06:47:06;;;;;;;;;;;;;;;;;;5095376;28;1528;-52
2021/11/10 06:49:31;;;;;;;;;;;;;;;;;;5098049;28;1938;-51
2021/11/10 06:51:57;;;;;;;;;;;;;;;;;;5100344;28;1095;-52
2021/11/10 06:54:22;;;;;;;;;;;;;;;;;;5098876;28;1973;-51
2021/11/10 06:56:49;;;;;;;;;;;;;;;;;;5101739;28;1546;-51
2021/11/10 06:59:14;;;;;;;;;;;;;;;;;;5097022;28;1386;-50
2021/11/10 07:01:39;;;;;;;;;;;;;;;;;;5096815;28;1622;-51
2021/11/10 07:04:04;;;;;;;;;;;;;;;;;;5097398;28;1471;-50
2021/11/10 07:06:30;;;;;;;;;;;;;;;;;;5117583;22;1989;-45
2021/11/10 07:08:55;;;;;;;;;;;;;;;;;;5067975;28;1343;-46
2021/11/10 07:11:20;;;;;;;;;;;;;;;;;;5065905;28;1195;-47
2021/11/10 07:13:47;;;;;;;;;;;;;;;;;;5065819;28;1926;-46
2021/11/10 07:16:12;;;;;;;;;;;;;;;;;;5065978;28;1293;-45
2021/11/10 07:18:38;;;;;;;;;;;;;;;;;;5066596;28;1450;-45
2021/11/10 07:21:03;;;;;;;;;;;;;;;;;;5064962;28;1175;-46
2021/11/10 07:23:28;;;;;;;;;;;;;;;;;;5068621;28;1234;-45
2021/11/10 07:25:54;;;;;;;;;;;;;;;;;;5065777;28;1557;-46
2021/11/10 07:28:19;;;;;;;;;;;;;;;;;;5066448;28;1380;-47
2021/11/10 07:30:45;;;;;;;;;;;;;;;;;;5065474;28;1593;-46
2021/11/10 07:33:10;;;;;;;;;;;;;;;;;;5064042;28;1890;-46
2021/11/10 07:35:36;;;;;;;;;;;;;;;;;;5068332;28;1411;-45
2021/11/10 07:38:01;;;;;;;;;;;;;;;;;;5065101;28;1642;-46
2021/11/10 07:40:26;;;;;;;;;;;;;;;;;;5063946;28;1444;-45
2021/11/10 07:42:52;;;;;;;;;;;;;;;;;;5065703;28;1246;-46
2021/11/10 07:45:20;;;;;;;;;;;;;;;;;;5065255;28;1500;-46
2021/11/10 07:47:46;;;;;;;;;;;;;;;;;;5065698;28;1452;-46
2021/11/10 07:50:19;;;;;;;;;;;;;;;;;;5063644;28;1822;-47
2021/11/10 07:52:45;;;;;;;;;;;;;;;;;;5062198;28;1906;-46
2021/11/10 07:55:10;;;;;;;;;;;;;;;;;;5067314;28;1160;-45
2021/11/10 07:57:36;;;;;;;;;;;;;;;;;;5064592;28;1584;-46
2021/11/10 08:00:05;;;;;;;;;;;;;;;;;;5061911;28;1459;-45
2021/11/10 08:02:30;;;;;;;;;;;;;;;;;;5059528;28;1474;-45
2021/11/10 08:04:55;;;;;;;;;;;;;;;;;;5063684;28;1537;-47
2021/11/10 08:07:21;;;;;;;;;;;;;;;;;;5063865;28;1270;-46
2021/11/10 08:09:46;;;;;;;;;;;;;;;;;;5064176;28;1505;-47
2021/11/10 08:12:11;;;;;;;;;;;;;;;;;;5063015;28;1445;-47
2021/11/10 08:14:36;;;;;;;;;;;;;;;;;;5064556;28;1886;-46
2021/11/10 08:17:01;;;;;;;;;;;;;;;;;;5067483;28;1303;-46
2021/11/10 08:19:26;;;;;;;;;;;;;;;;;;5067011;28;1435;-46
2021/11/10 08:21:52;;;;;;;;;;;;;;;;;;5063702;28;1484;-46
2021/11/10 08:24:17;;;;;;;;;;;;;;;;;;5066741;28;1137;-45
2021/11/10 08:26:42;;;;;;;;;;;;;;;;;;5068209;28;1370;-47
2021/11/10 08:29:07;;;;;;;;;;;;;;;;;;5066636;28;1600;-47
2021/11/10 08:31:32;;;;;;;;;;;;;;;;;;5064381;28;1108;-46
2021/11/10 08:33:58;;;;;;;;;;;;;;;;;;5063693;28;1898;-44
2021/11/10 08:36:23;;;;;;;;;;;;;;;;;;5064038;28;1437;-46
2021/11/10 08:38:48;;;;;;;;;;;;;;;;;;5046700;28;1459;-45
2021/11/10 08:41:13;;;;;;;;;;;;;;;;;;5065777;28;1478;-47
2021/11/10 08:43:38;;;;;;;;;;;;;;;;;;5062588;28;1407;-46
2021/11/10 08:46:06;;;;;;;;;;;;;;;;;;5067540;28;1286;-46
2021/11/10 08:48:31;;;;;;;;;;;;;;;;;;5068374;28;965;-47
2021/11/10 08:50:56;;;;;;;;;;;;;;;;;;5057874;28;1786;-46
2021/11/10 08:53:22;;;;;;;;;;;;;;;;;;5065068;28;1902;-45
2021/11/10 08:55:48;;;;;;;;;;;;;;;;;;5067032;28;1112;-47
2021/11/10 08:58:13;;;;;;;;;;;;;;;;;;5065038;28;1575;-47
2021/11/10 09:00:38;;;;;;;;;;;;;;;;;;5062367;28;1448;-46
2021/11/10 09:03:04;;;;;;;;;;;;;;;;;;5060290;28;1580;-47
2021/11/10 09:05:29;;;;;;;;;;;;;;;;;;5063181;28;1467;-46
2021/11/10 09:07:54;;;;;;;;;;;;;;;;;;5063453;28;1600;-46
2021/11/10 09:10:20;;;;;;;;;;;;;;;;;;5063637;28;1104;-45
2021/11/10 09:12:45;;;;;;;;;;;;;;;;;;5063054;28;1969;-45
2021/11/10 09:15:11;;;;;;;;;;;;;;;;;;5065494;28;1556;-45
2021/11/10 09:17:36;;;;;;;;;;;;;;;;;;5064126;28;1325;-46
2021/11/10 09:20:02;;;;;;;;;;;;;;;;;;5065545;28;1391;-46
2021/11/10 09:22:28;;;;;;;;;;;;;;;;;;5065930;28;1217;-45
2021/11/10 09:24:53;;;;;;;;;;;;;;;;;;5064215;28;1501;-45
2021/11/10 09:27:18;;;;;;;;;;;;;;;;;;5063054;28;1616;-47
2021/11/10 09:29:43;;;;;;;;;;;;;;;;;;5062318;28;1424;-47
2021/11/10 09:32:09;;;;;;;;;;;;;;;;;;5066536;28;1044;-47
2021/11/10 09:34:34;;;;;;;;;;;;;;;;;;5064526;28;1959;-49
2021/11/10 09:36:59;;;;;;;;;;;;;;;;;;5060946;28;1237;-48
2021/11/10 09:39:24;;;;;;;;;;;;;;;;;;5045295;28;1420;-48
2021/11/10 09:41:50;;;;;;;;;;;;;;;;;;5063310;28;1179;-48
2021/11/10 09:44:16;;;;;;;;;;;;;;;;;;5061610;28;1366;-48
2021/11/10 09:46:41;;;;;;;;;;;;;;;;;;5068513;28;1292;-48
2021/11/10 09:49:07;;;;;;;;;;;;;;;;;;5069069;28;1781;-48
2021/11/10 09:51:33;;;;;;;;;;;;;;;;;;5071304;28;1600;-49
2021/11/10 09:53:58;;;;;;;;;;;;;;;;;;5066988;28;1901;-49
2021/11/10 09:56:24;;;;;;;;;;;;;;;;;;5070923;28;1216;-48
2021/11/10 09:58:50;;;;;;;;;;;;;;;;;;5070978;28;1423;-48
2021/11/10 10:01:15;;;;;;;;;;;;;;;;;;5067069;28;1492;-48
2021/11/10 10:03:44;;;;;;;;;;;;;;;;;;5066801;28;1395;-48
2021/11/10 10:06:09;;;;;;;;;;;;;;;;;;5066849;28;1627;-49
2021/11/10 10:08:34;;;;;;;;;;;;;;;;;;5051521;28;1120;-49
2021/11/10 10:11:00;;;;;;;;;;;;;;;;;;5066714;28;1457;-49
2021/11/10 10:13:25;;;;;;;;;;;;;;;;;;5068361;28;1902;-48
2021/11/10 10:15:51;;;;;;;;;;;;;;;;;;5070462;28;1178;-49
2021/11/10 10:18:18;;;;;;;;;;;;;;;;;;5069973;28;1683;-48
2021/11/10 10:20:43;;;;;;;;;;;;;;;;;;5048458;28;1604;-48
2021/11/10 10:23:12;;;;;;;;;;;;;;;;;;5068018;28;1172;-48
2021/11/10 10:25:51;;;;;;;;;;;;;;;;;;5070948;28;1160;-48
2021/11/10 10:28:20;;;;;;;;;;;;;;;;;;5063357;28;1486;-48
2021/11/10 10:30:53;;;;;;;;;;;;;;;;;;5068228;28;1220;-49
2021/11/10 10:33:19;;;;;;;;;;;;;;;;;;5066851;28;1898;-48
2021/11/10 10:35:49;;;;;;;;;;;;;;;;;;5067308;28;1312;-48
2021/11/10 10:38:18;;;;;;;;;;;;;;;;;;5070282;28;1279;-48
2021/11/10 10:40:44;;;;;;;;;;;;;;;;;;5069094;28;1466;-48
2021/11/10 10:43:10;;;;;;;;;;;;;;;;;;5064747;28;1447;-48
2021/11/10 10:45:42;;;;;;;;;;;;;;;;;;5066318;28;1497;-48
2021/11/10 10:48:10;;;;;;;;;;;;;;;;;;5064817;28;1278;-48
2021/11/10 10:50:51;;;;;;;;;;;;;;;;;;5067931;28;1435;-48
2021/11/10 10:53:31;;;;;;;;;;;;;;;;;;5067620;28;1926;-49
2021/11/10 10:55:57;;;;;;;;;;;;;;;;;;5064055;28;1436;-48
2021/11/10 10:58:48;;;;;;;;;;;;;;;;;;5068288;28;1254;-48
2021/11/10 11:01:18;;;;;;;;;;;;;;;;;;5063435;28;1853;-48
2021/11/10 11:03:48;;;;;;;;;;;;;;;;;;5066338;28;1908;-48
2021/11/10 11:06:21;;;;;;;;;;;;;;;;;;5064320;28;1560;-48
2021/11/10 11:08:47;;;;;;;;;;;;;;;;;;5064707;28;1061;-48
2021/11/10 11:11:18;;;;;;;;;;;;;;;;;;5066577;28;1828;-49
2021/11/10 11:13:44;;;;;;;;;;;;;;;;;;5065291;28;1967;-48
2021/11/10 11:16:10;;;;;;;;;;;;;;;;;;5067058;28;1290;-48
2021/11/10 11:18:35;;;;;;;;;;;;;;;;;;5069154;28;1616;-47
2021/11/10 11:21:19;;;;;;;;;;;;;;;;;;5064832;28;1098;-48
2021/11/10 11:23:45;;;;;;;;;;;;;;;;;;5068826;28;1097;-48
2021/11/10 11:26:29;;;;;;;;;;;;;;;;;;5066813;28;1699;-48
2021/11/10 11:28:56;;;;;;;;;;;;;;;;;;5065461;28;1479;-48
2021/11/10 11:31:29;;;;;;;;;;;;;;;;;;5066918;28;1497;-49
2021/11/10 11:33:59;;;;;;;;;;;;;;;;;;5062467;28;1902;-48
2021/11/10 11:36:25;;;;;;;;;;;;;;;;;;5067887;28;1508;-48
2021/11/10 11:38:50;;;;;;;;;;;;;;;;;;5046109;28;1473;-49
2021/11/10 11:41:17;;;;;;;;;;;;;;;;;;5048741;28;1668;-49
2021/11/10 11:43:42;;;;;;;;;;;;;;;;;;5065795;28;1140;-48
2021/11/10 11:46:07;;;;;;;;;;;;;;;;;;5048598;28;1276;-48
2021/11/10 11:48:33;;;;;;;;;;;;;;;;;;5064043;28;1573;-48
2021/11/10 11:51:03;;;;;;;;;;;;;;;;;;5066542;28;970;-46
2021/11/10 11:53:29;;;;;;;;;;;;;;;;;;5067208;28;1959;-49
2021/11/10 11:55:58;;;;;;;;;;;;;;;;;;5065425;28;1537;-48
2021/11/10 11:58:24;;;;;;;;;;;;;;;;;;5064702;28;1315;-49
2021/11/10 12:00:50;;;;;;;;;;;;;;;;;;5045427;28;1580;-47
2021/11/10 12:03:16;;;;;;;;;;;;;;;;;;5065359;28;1029;-49
2021/11/10 12:05:41;;;;;;;;;;;;;;;;;;5065624;28;1498;-49
2021/11/10 12:08:07;;;;;;;;;;;;;;;;;;5063851;28;1454;-48
2021/11/10 12:10:33;;;;;;;;;;;;;;;;;;5066911;28;1152;-48
2021/11/10 12:13:19;;;;;;;;;;;;;;;;;;5063265;28;2485;-49
2021/11/10 12:15:57;;;;;;;;;;;;;;;;;;5065586;28;982;-49
2021/11/10 12:18:22;;;;;;;;;;;;;;;;;;5061511;28;1513;-49
2021/11/10 12:20:47;;;;;;;;;;;;;;;;;;5065656;28;1484;-48
2021/11/10 12:23:12;;;;;;;;;;;;;;;;;;5046206;28;1426;-49
2021/11/10 12:25:55;;;;;;;;;;;;;;;;;;5066770;28;1140;-49
2021/11/10 12:28:40;;;;;;;;;;;;;;;;;;5063736;28;1402;-49
2021/11/10 12:31:24;;;;;;;;;;;;;;;;;;5055950;28;1900;-48
2021/11/10 12:33:49;;;;;;;;;;;;;;;;;;5061892;28;1898;-48
2021/11/10 12:36:14;;;;;;;;;;;;;;;;;;5065860;28;1333;-48
2021/11/10 12:38:39;;;;;;;;;;;;;;;;;;5044345;28;1522;-48
2021/11/10 12:41:06;;;;;;;;;;;;;;;;;;5044434;28;1237;-49
2021/11/10 12:43:38;;;;;;;;;;;;;;;;;;5064225;28;1116;-48
2021/11/10 12:46:05;;;;;;;;;;;;;;;;;;5065846;28;1310;-49
2021/11/10 12:48:40;;;;;;;;;;;;;;;;;;5065815;28;1475;-48
2021/11/10 12:51:32;;;;;;;;;;;;;;;;;;5065548;28;1084;-48
2021/11/10 12:53:58;;;;;;;;;;;;;;;;;;5062652;28;1958;-49
2021/11/10 12:56:42;;;;;;;;;;;;;;;;;;5064042;28;1711;-48
2021/11/10 12:59:09;;;;;;;;;;;;;;;;;;5066473;28;1466;-48
2021/11/10 13:01:34;;;;;;;;;;;;;;;;;;5065592;28;1695;-49
2021/11/10 13:03:59;;;;;;;;;;;;;;;;;;5062825;28;1446;-48
2021/11/10 13:06:30;;;;;;;;;;;;;;;;;;5065667;28;1647;-48
2021/11/10 13:09:03;;;;;;;;;;;;;;;;;;5085207;22;1676;-53
2021/11/10 13:11:35;;;;;;;;;;;;;;;;;;5062522;28;1560;-52
2021/11/10 13:14:03;;;;;;;;;;;;;;;;;;5062901;28;1980;-53
2021/11/10 13:16:29;;;;;;;;;;;;;;;;;;5064790;28;1600;-53
2021/11/10 13:18:54;;;;;;;;;;;;;;;;;;5055693;28;1479;-53
2021/11/10 13:21:19;;;;;;;;;;;;;;;;;;5064343;28;1601;-53
2021/11/10 13:23:44;;;;;;;;;;;;;;;;;;5064181;28;1184;-52
2021/11/10 13:26:10;;;;;;;;;;;;;;;;;;5064337;28;1473;-52
2021/11/10 13:28:35;;;;;;;;;;;;;;;;;;5062863;28;1925;-53
2021/11/10 13:31:00;;;;;;;;;;;;;;;;;;5064875;28;1116;-54
2021/11/10 13:33:37;;;;;;;;;;;;;;;;;;5061791;28;1909;-53
2021/11/10 13:36:08;;;;;;;;;;;;;;;;;;5064341;28;899;-52
2021/11/10 13:38:52;;;;;;;;;;;;;;;;;;5061475;28;1636;-52
2021/11/10 13:41:24;;;;;;;;;;;;;;;;;;5065597;28;1089;-53
2021/11/10 13:43:53;;;;;;;;;;;;;;;;;;5067421;28;1278;-52
2021/11/10 13:46:20;;;;;;;;;;;;;;;;;;5065458;28;1565;-53
2021/11/10 13:48:45;;;;;;;;;;;;;;;;;;5060505;28;2090;-53
2021/11/10 13:51:10;;;;;;;;;;;;;;;;;;5066645;28;1100;-52
2021/11/10 13:53:35;;;;;;;;;;;;;;;;;;5067404;28;1902;-53
2021/11/10 13:56:00;;;;;;;;;;;;;;;;;;5063269;28;1394;-53
2021/11/10 13:58:26;;;;;;;;;;;;;;;;;;5065145;28;1435;-54
2021/11/10 14:00:51;;;;;;;;;;;;;;;;;;5066811;28;1163;-53
2021/11/10 14:03:27;;;;;;;;;;;;;;;;;;5062702;28;1360;-53
2021/11/10 14:05:52;;;;;;;;;;;;;;;;;;5062353;28;1537;-52
2021/11/10 14:08:19;;;;;;;;;;;;;;;;;;5061247;28;1572;-52
2021/11/10 14:10:44;;;;;;;;;;;;;;;;;;5062517;28;1498;-51
2021/11/10 14:13:10;;;;;;;;;;;;;;;;;;5060583;28;1967;-53
2021/11/10 14:15:37;;;;;;;;;;;;;;;;;;5064376;28;1171;-53
2021/11/10 14:18:06;;;;;;;;;;;;;;;;;;5062580;28;1493;-53
2021/11/10 14:20:44;;;;;;;;;;;;;;;;;;5062346;28;1675;-53
2021/11/10 14:23:12;;;;;;;;;;;;;;;;;;5061377;28;1651;-53
2021/11/10 14:25:38;;;;;;;;;;;;;;;;;;5064127;28;1112;-52
2021/11/10 14:28:03;;;;;;;;;;;;;;;;;;5058568;28;2001;-53
2021/11/10 14:30:29;;;;;;;;;;;;;;;;;;5064453;28;1214;-52
2021/11/10 14:32:56;;;;;;;;;;;;;;;;;;5063914;28;1909;-52
2021/11/10 14:35:22;;;;;;;;;;;;;;;;;;5066560;28;1482;-54
2021/11/10 14:37:47;;;;;;;;;;;;;;;;;;5067749;28;1604;-53
2021/11/10 14:40:23;;;;;;;;;;;;;;;;;;5065275;28;1410;-53
2021/11/10 14:42:48;;;;;;;;;;;;;;;;;;5067278;28;1513;-54
2021/11/10 14:45:16;;;;;;;;;;;;;;;;;;5067427;28;1100;-54
2021/11/10 14:47:52;;;;;;;;;;;;;;;;;;5067483;28;1549;-53
2021/11/10 14:50:17;;;;;;;;;;;;;;;;;;5066380;28;1427;-53
2021/11/10 14:52:44;;;;;;;;;;;;;;;;;;5069417;28;1124;-53
2021/11/10 14:55:10;;;;;;;;;;;;;;;;;;5066930;28;1965;-52
2021/11/10 14:57:35;;;;;;;;;;;;;;;;;;5066614;28;1361;-53
2021/11/10 15:00:02;;;;;;;;;;;;;;;;;;5064785;28;1517;-52
2021/11/10 15:02:28;;;;;;;;;;;;;;;;;;5048935;28;1057;-53
2021/11/10 15:04:59;;;;;;;;;;;;;;;;;;5068207;28;1391;-53
2021/11/10 15:07:29;;;;;;;;;;;;;;;;;;5069582;28;1387;-53
2021/11/10 15:09:54;;;;;;;;;;;;;;;;;;5065041;28;1170;-52
2021/11/10 15:12:23;;;;;;;;;;;;;;;;;;5066843;28;1286;-54
2021/11/10 15:14:52;;;;;;;;;;;;;;;;;;5066818;28;1971;-53
2021/11/10 15:17:17;;;;;;;;;;;;;;;;;;5067500;28;1362;-52
2021/11/10 15:19:43;;;;;;;;;;;;;;;;;;5065190;28;1486;-53
2021/11/10 15:22:17;;;;;;;;;;;;;;;;;;5066455;28;1541;-53
2021/11/10 15:24:43;;;;;;;;;;;;;;;;;;5065917;28;1081;-53
2021/11/10 15:27:10;;;;;;;;;;;;;;;;;;5068549;28;1306;-54
2021/11/10 15:29:35;;;;;;;;;;;;;;;;;;5062492;28;1490;-52
2021/11/10 15:32:00;;;;;;;;;;;;;;;;;;5065069;28;1249;-52
2021/11/10 15:34:28;;;;;;;;;;;;;;;;;;5067934;28;1964;-53
2021/11/10 15:36:53;;;;;;;;;;;;;;;;;;5067463;28;1319;-53
2021/11/10 15:39:19;;;;;;;;;;;;;;;;;;5065004;28;1442;-54
2021/11/10 15:41:44;;;;;;;;;;;;;;;;;;5066104;28;1596;-52
2021/11/10 15:44:09;;;;;;;;;;;;;;;;;;5064117;28;1144;-54
2021/11/10 15:46:36;;;;;;;;;;;;;;;;;;5066535;28;1609;-53
2021/11/10 15:49:01;;;;;;;;;;;;;;;;;;5062235;28;1388;-52
2021/11/10 15:51:28;;;;;;;;;;;;;;;;;;5067611;28;1600;-52
2021/11/10 15:53:53;;;;;;;;;;;;;;;;;;5064884;28;1969;-53
2021/11/10 15:56:18;;;;;;;;;;;;;;;;;;5067357;28;1121;-54
2021/11/10 15:58:43;;;;;;;;;;;;;;;;;;5067907;28;1429;-53
2021/11/10 16:01:08;;;;;;;;;;;;;;;;;;5066911;28;1470;-53
2021/11/10 16:03:37;;;;;;;;;;;;;;;;;;5063340;28;1552;-52
2021/11/10 16:06:03;;;;;;;;;;;;;;;;;;5063820;28;1640;-53
2021/11/10 16:08:28;;;;;;;;;;;;;;;;;;5066220;28;1349;-53
2021/11/10 16:10:53;;;;;;;;;;;;;;;;;;5066354;28;1569;-53
2021/11/10 16:13:19;;;;;;;;;;;;;;;;;;5063742;28;1914;-53
2021/11/10 16:15:45;;;;;;;;;;;;;;;;;;5066057;28;1625;-52
2021/11/10 16:18:10;;;;;;;;;;;;;;;;;;5065543;28;1283;-53
2021/11/10 16:20:36;;;;;;;;;;;;;;;;;;5067000;28;1451;-53
2021/11/10 16:23:01;;;;;;;;;;;;;;;;;;5064386;28;1485;-53
2021/11/10 16:25:27;;;;;;;;;;;;;;;;;;5066796;28;1211;-53
2021/11/10 16:28:41;;;;;;;;;;;;;;;;;;5066952;28;1470;-53
2021/11/10 16:33:10;;;;;;;;;;;;;;;;;;5064616;28;1905;-53
2021/11/10 16:35:36;;;;;;;;;;;;;;;;;;5061192;28;1632;-52
2021/11/10 16:38:01;;;;;;;;;;;;;;;;;;5064637;28;1296;-51
2021/11/10 16:40:26;;;;;;;;;;;;;;;;;;5064527;28;1549;-52
2021/11/10 16:42:51;;;;;;;;;;;;;;;;;;5060459;28;1800;-50
2021/11/10 16:45:17;;;;;;;;;;;;;;;;;;5062695;28;1077;-51
2021/11/10 16:47:42;;;;;;;;;;;;;;;;;;5062261;28;1521;-51
2021/11/10 16:50:09;;;;;;;;;;;;;;;;;;5063303;28;1442;-50
2021/11/10 16:52:34;;;;;;;;;;;;;;;;;;5060755;28;1628;-53
2021/11/10 16:54:59;;;;;;;;;;;;;;;;;;5064368;28;1910;-50
2021/11/10 16:57:25;;;;;;;;;;;;;;;;;;5064236;28;1593;-52
2021/11/10 16:59:50;;;;;;;;;;;;;;;;;;5062358;28;1407;-53
2021/11/10 17:02:15;;;;;;;;;;;;;;;;;;5066575;28;1141;-50